sensor_id;sensor_type;location;lat;lon;timestamp;temperature;humidity
41756;DHT22;27435;48.480;9.258;2023-09-19T00:01:06;15.90;99.00
41756;DHT22;27435;48.480;9.258;2023-09-19T00:03:35;15.80;99.00
41756;DHT22;27435;48.480;9.258;2023-09-19T00:06:07;15.80;99.00
41756;DHT22;27435;48.480;9.258;2023-09-19T00:08:33;15.80;99.00
41756;DHT22;27435;48.480;9.258;2023-09-19T00:10:59;15.90;99.00
41756;DHT22;27435;48.480;9.258;2023-09-19T00:13:31;15.90;99.00
41756;DHT22;27435;48.480;9.258;2023-09-19T00:15:57;15.90;99.00
41756;DHT22;27435;48.480;9.258;2023-09-19T00:18:24;15.90;99.00
41756;DHT22;27435;48.480;9.258;2023-09-19T00:20:59;16.00;99.00
41756;DHT22;27435;48.480;9.258;2023-09-19T00:23:25;16.00;99.00
41756;DHT22;27435;48.480;9.258;2023-09-19T00:25:50;16.00;99.00
41756;DHT22;27435;48.480;9.258;2023-09-19T00:28:16;15.90;99.00
41756;DHT22;27435;48.480;9.258;2023-09-19T00:30:44;15.90;99.00
41756;DHT22;27435;48.480;9.258;2023-09-19T00:33:10;15.80;99.00
41756;DHT22;27435;48.480;9.258;2023-09-19T00:35:36;15.80;99.00
41756;DHT22;27435;48.480;9.258;2023-09-19T00:38:02;15.80;99.00
41756;DHT22;27435;48.480;9.258;2023-09-19T00:40:29;15.90;99.00
41756;DHT22;27435;48.480;9.258;2023-09-19T00:42:57;15.80;99.00
41756;DHT22;27435;48.480;9.258;2023-09-19T00:45:25;15.70;99.00
41756;DHT22;27435;48.480;9.258;2023-09-19T00:47:50;15.70;99.00
41756;DHT22;27435;48.480;9.258;2023-09-19T00:50:20;15.60;99.00
41756;DHT22;27435;48.480;9.258;2023-09-19T00:52:48;15.70;99.00
41756;DHT22;27435;48.480;9.258;2023-09-19T00:55:15;15.80;99.00
41756;DHT22;27435;48.480;9.258;2023-09-19T00:57:41;15.80;99.00
41756;DHT22;27435;48.480;9.258;2023-09-19T01:00:07;15.90;99.00
41756;DHT22;27435;48.480;9.258;2023-09-19T01:02:34;15.80;99.00
41756;DHT22;27435;48.480;9.258;2023-09-19T01:05:00;15.90;99.00
41756;DHT22;27435;48.480;9.258;2023-09-19T01:07:29;16.00;99.00
41756;DHT22;27435;48.480;9.258;2023-09-19T01:10:03;15.80;99.00
41756;DHT22;27435;48.480;9.258;2023-09-19T01:23:21;15.80;99.00
41756;DHT22;27435;48.480;9.258;2023-09-19T01:28:34;15.70;99.00
41756;DHT22;27435;48.480;9.258;2023-09-19T01:31:09;15.70;99.00
41756;DHT22;27435;48.480;9.258;2023-09-19T01:33:53;15.70;99.00
41756;DHT22;27435;48.480;9.258;2023-09-19T01:36:20;15.80;99.00
41756;DHT22;27435;48.480;9.258;2023-09-19T01:38:48;15.80;99.00
41756;DHT22;27435;48.480;9.258;2023-09-19T01:41:14;15.90;99.00
41756;DHT22;27435;48.480;9.258;2023-09-19T01:43:43;15.90;99.00
41756;DHT22;27435;48.480;9.258;2023-09-19T01:46:29;15.80;99.00
41756;DHT22;27435;48.480;9.258;2023-09-19T01:51:43;15.90;99.00
41756;DHT22;27435;48.480;9.258;2023-09-19T01:54:12;16.00;99.00
41756;DHT22;27435;48.480;9.258;2023-09-19T01:56:48;16.10;99.00
41756;DHT22;27435;48.480;9.258;2023-09-19T01:59:16;16.20;99.00
41756;DHT22;27435;48.480;9.258;2023-09-19T02:01:45;16.20;99.00
41756;DHT22;27435;48.480;9.258;2023-09-19T02:04:11;16.20;99.00
41756;DHT22;27435;48.480;9.258;2023-09-19T02:06:39;16.20;99.00
41756;DHT22;27435;48.480;9.258;2023-09-19T02:09:05;16.30;99.00
41756;DHT22;27435;48.480;9.258;2023-09-19T02:11:31;16.00;99.00
41756;DHT22;27435;48.480;9.258;2023-09-19T02:13:56;15.90;99.00
41756;DHT22;27435;48.480;9.258;2023-09-19T02:16:22;15.80;99.00
41756;DHT22;27435;48.480;9.258;2023-09-19T02:18:51;15.80;99.00
41756;DHT22;27435;48.480;9.258;2023-09-19T02:21:17;15.80;99.00
41756;DHT22;27435;48.480;9.258;2023-09-19T02:23:43;15.70;99.00
41756;DHT22;27435;48.480;9.258;2023-09-19T02:26:08;15.80;99.00
41756;DHT22;27435;48.480;9.258;2023-09-19T02:28:34;15.70;99.00
41756;DHT22;27435;48.480;9.258;2023-09-19T02:31:01;15.90;99.00
41756;DHT22;27435;48.480;9.258;2023-09-19T02:33:26;16.20;99.00
41756;DHT22;27435;48.480;9.258;2023-09-19T02:35:58;16.30;99.00
41756;DHT22;27435;48.480;9.258;2023-09-19T02:38:24;16.20;99.00
41756;DHT22;27435;48.480;9.258;2023-09-19T02:40:51;16.30;99.00
41756;DHT22;27435;48.480;9.258;2023-09-19T02:43:17;16.40;99.00
41756;DHT22;27435;48.480;9.258;2023-09-19T02:45:45;16.40;99.00
41756;DHT22;27435;48.480;9.258;2023-09-19T02:48:11;16.40;99.00
41756;DHT22;27435;48.480;9.258;2023-09-19T02:50:37;16.40;99.00
41756;DHT22;27435;48.480;9.258;2023-09-19T02:53:05;16.30;99.00
41756;DHT22;27435;48.480;9.258;2023-09-19T03:16:52;16.30;99.00
41756;DHT22;27435;48.480;9.258;2023-09-19T03:19:18;16.40;99.00
41756;DHT22;27435;48.480;9.258;2023-09-19T03:21:46;16.40;99.00
41756;DHT22;27435;48.480;9.258;2023-09-19T03:24:12;16.40;99.00
41756;DHT22;27435;48.480;9.258;2023-09-19T03:26:37;16.50;99.00
41756;DHT22;27435;48.480;9.258;2023-09-19T03:29:03;16.50;99.00
41756;DHT22;27435;48.480;9.258;2023-09-19T03:31:31;16.30;99.00
41756;DHT22;27435;48.480;9.258;2023-09-19T03:33:57;16.30;99.00
41756;DHT22;27435;48.480;9.258;2023-09-19T03:36:22;16.30;99.00
41756;DHT22;27435;48.480;9.258;2023-09-19T03:38:48;16.30;99.00
41756;DHT22;27435;48.480;9.258;2023-09-19T03:41:14;16.40;99.00
41756;DHT22;27435;48.480;9.258;2023-09-19T03:43:42;16.20;99.00
41756;DHT22;27435;48.480;9.258;2023-09-19T03:46:08;16.30;99.00
41756;DHT22;27435;48.480;9.258;2023-09-19T03:48:33;16.30;99.00
41756;DHT22;27435;48.480;9.258;2023-09-19T03:50:59;16.30;99.00
41756;DHT22;27435;48.480;9.258;2023-09-19T03:53:24;16.40;99.00
41756;DHT22;27435;48.480;9.258;2023-09-19T03:55:50;16.50;99.00
41756;DHT22;27435;48.480;9.258;2023-09-19T03:58:15;16.50;99.00
41756;DHT22;27435;48.480;9.258;2023-09-19T04:00:40;16.50;99.00
41756;DHT22;27435;48.480;9.258;2023-09-19T04:03:06;16.50;99.00
41756;DHT22;27435;48.480;9.258;2023-09-19T04:05:33;16.30;99.00
41756;DHT22;27435;48.480;9.258;2023-09-19T04:07:59;16.40;99.00
41756;DHT22;27435;48.480;9.258;2023-09-19T04:10:24;16.30;99.00
41756;DHT22;27435;48.480;9.258;2023-09-19T04:12:50;16.30;99.00
41756;DHT22;27435;48.480;9.258;2023-09-19T04:15:16;16.00;99.00
41756;DHT22;27435;48.480;9.258;2023-09-19T04:17:41;15.80;99.00
41756;DHT22;27435;48.480;9.258;2023-09-19T04:20:07;15.70;99.00
41756;DHT22;27435;48.480;9.258;2023-09-19T04:22:33;15.70;99.00
41756;DHT22;27435;48.480;9.258;2023-09-19T04:24:58;15.70;99.00
41756;DHT22;27435;48.480;9.258;2023-09-19T04:27:24;15.60;99.00
41756;DHT22;27435;48.480;9.258;2023-09-19T04:29:49;15.60;99.00
41756;DHT22;27435;48.480;9.258;2023-09-19T04:32:18;15.60;99.00
41756;DHT22;27435;48.480;9.258;2023-09-19T04:34:43;15.40;99.00
41756;DHT22;27435;48.480;9.258;2023-09-19T04:37:09;15.40;99.00
41756;DHT22;27435;48.480;9.258;2023-09-19T04:39:36;15.30;99.00
41756;DHT22;27435;48.480;9.258;2023-09-19T04:42:01;15.30;99.00
41756;DHT22;27435;48.480;9.258;2023-09-19T04:44:28;15.30;99.00
41756;DHT22;27435;48.480;9.258;2023-09-19T04:46:54;15.00;99.00
41756;DHT22;27435;48.480;9.258;2023-09-19T04:49:19;15.10;99.00
41756;DHT22;27435;48.480;9.258;2023-09-19T04:51:45;15.20;99.00
41756;DHT22;27435;48.480;9.258;2023-09-19T04:54:12;15.30;99.00
41756;DHT22;27435;48.480;9.258;2023-09-19T04:56:38;15.10;99.00
41756;DHT22;27435;48.480;9.258;2023-09-19T04:59:05;15.00;99.00
41756;DHT22;27435;48.480;9.258;2023-09-19T05:01:31;15.10;99.00
41756;DHT22;27435;48.480;9.258;2023-09-19T05:03:56;15.10;99.00
41756;DHT22;27435;48.480;9.258;2023-09-19T05:06:23;15.10;99.00
41756;DHT22;27435;48.480;9.258;2023-09-19T05:08:49;15.20;99.00
41756;DHT22;27435;48.480;9.258;2023-09-19T05:11:18;15.20;99.00
41756;DHT22;27435;48.480;9.258;2023-09-19T05:13:44;15.20;99.00
41756;DHT22;27435;48.480;9.258;2023-09-19T05:16:09;15.20;99.00
41756;DHT22;27435;48.480;9.258;2023-09-19T05:18:35;15.30;99.00
41756;DHT22;27435;48.480;9.258;2023-09-19T05:21:02;15.30;99.00
41756;DHT22;27435;48.480;9.258;2023-09-19T05:23:27;15.40;99.00
41756;DHT22;27435;48.480;9.258;2023-09-19T05:25:53;15.40;99.00
41756;DHT22;27435;48.480;9.258;2023-09-19T05:28:20;15.50;99.00
41756;DHT22;27435;48.480;9.258;2023-09-19T05:30:45;15.70;99.00
41756;DHT22;27435;48.480;9.258;2023-09-19T05:33:12;15.80;99.00
41756;DHT22;27435;48.480;9.258;2023-09-19T05:35:38;15.80;99.00
41756;DHT22;27435;48.480;9.258;2023-09-19T05:38:05;15.80;99.00
41756;DHT22;27435;48.480;9.258;2023-09-19T05:40:34;15.90;99.00
41756;DHT22;27435;48.480;9.258;2023-09-19T05:43:00;16.10;99.00
41756;DHT22;27435;48.480;9.258;2023-09-19T05:45:26;16.20;99.00
41756;DHT22;27435;48.480;9.258;2023-09-19T05:47:52;16.40;99.00
41756;DHT22;27435;48.480;9.258;2023-09-19T05:50:26;16.50;99.00
41756;DHT22;27435;48.480;9.258;2023-09-19T05:52:52;16.70;99.00
41756;DHT22;27435;48.480;9.258;2023-09-19T05:55:18;16.80;99.00
41756;DHT22;27435;48.480;9.258;2023-09-19T05:57:43;16.80;99.00
41756;DHT22;27435;48.480;9.258;2023-09-19T06:00:15;16.90;99.00
41756;DHT22;27435;48.480;9.258;2023-09-19T06:02:43;16.90;99.00
41756;DHT22;27435;48.480;9.258;2023-09-19T06:05:10;16.90;99.00
41756;DHT22;27435;48.480;9.258;2023-09-19T06:07:36;17.10;99.00
41756;DHT22;27435;48.480;9.258;2023-09-19T06:10:05;17.10;99.00
41756;DHT22;27435;48.480;9.258;2023-09-19T06:12:31;17.30;99.00
41756;DHT22;27435;48.480;9.258;2023-09-19T06:14:59;17.30;99.00
41756;DHT22;27435;48.480;9.258;2023-09-19T06:17:24;17.40;99.00
41756;DHT22;27435;48.480;9.258;2023-09-19T06:19:52;17.50;99.00
41756;DHT22;27435;48.480;9.258;2023-09-19T06:22:17;17.10;99.00
41756;DHT22;27435;48.480;9.258;2023-09-19T06:24:44;16.80;99.00
41756;DHT22;27435;48.480;9.258;2023-09-19T06:27:10;16.80;99.00
41756;DHT22;27435;48.480;9.258;2023-09-19T06:29:35;16.70;99.00
41756;DHT22;27435;48.480;9.258;2023-09-19T06:32:07;16.70;99.00
41756;DHT22;27435;48.480;9.258;2023-09-19T06:34:32;16.70;99.00
41756;DHT22;27435;48.480;9.258;2023-09-19T06:36:58;16.70;99.00
41756;DHT22;27435;48.480;9.258;2023-09-19T06:39:23;16.80;99.00
41756;DHT22;27435;48.480;9.258;2023-09-19T06:41:51;16.80;99.00
41756;DHT22;27435;48.480;9.258;2023-09-19T06:44:19;17.00;99.00
41756;DHT22;27435;48.480;9.258;2023-09-19T06:46:46;17.10;99.00
41756;DHT22;27435;48.480;9.258;2023-09-19T06:49:15;17.10;99.00
41756;DHT22;27435;48.480;9.258;2023-09-19T06:51:40;17.40;99.00
41756;DHT22;27435;48.480;9.258;2023-09-19T06:54:07;17.40;99.00
41756;DHT22;27435;48.480;9.258;2023-09-19T06:56:32;17.40;99.00
41756;DHT22;27435;48.480;9.258;2023-09-19T06:58:58;17.40;99.00
41756;DHT22;27435;48.480;9.258;2023-09-19T07:01:23;17.50;99.00
41756;DHT22;27435;48.480;9.258;2023-09-19T07:03:50;17.30;99.00
41756;DHT22;27435;48.480;9.258;2023-09-19T07:06:16;17.50;99.00
41756;DHT22;27435;48.480;9.258;2023-09-19T07:08:41;17.60;99.00
41756;DHT22;27435;48.480;9.258;2023-09-19T07:11:07;17.70;99.00
41756;DHT22;27435;48.480;9.258;2023-09-19T07:13:32;17.70;99.00
41756;DHT22;27435;48.480;9.258;2023-09-19T07:15:58;17.70;99.00
41756;DHT22;27435;48.480;9.258;2023-09-19T07:18:25;17.70;99.00
41756;DHT22;27435;48.480;9.258;2023-09-19T07:20:50;17.70;99.00
41756;DHT22;27435;48.480;9.258;2023-09-19T07:23:19;17.70;99.00
41756;DHT22;27435;48.480;9.258;2023-09-19T07:25:46;17.80;99.00
41756;DHT22;27435;48.480;9.258;2023-09-19T07:28:11;17.90;99.00
41756;DHT22;27435;48.480;9.258;2023-09-19T07:30:37;17.90;99.00
41756;DHT22;27435;48.480;9.258;2023-09-19T07:33:03;17.80;99.00
41756;DHT22;27435;48.480;9.258;2023-09-19T07:35:30;17.70;99.00
41756;DHT22;27435;48.480;9.258;2023-09-19T07:37:56;17.70;99.00
41756;DHT22;27435;48.480;9.258;2023-09-19T07:40:26;17.50;99.00
41756;DHT22;27435;48.480;9.258;2023-09-19T07:42:57;17.60;99.00
41756;DHT22;27435;48.480;9.258;2023-09-19T07:45:30;17.90;99.00
41756;DHT22;27435;48.480;9.258;2023-09-19T07:47:55;18.00;99.00
41756;DHT22;27435;48.480;9.258;2023-09-19T07:50:21;18.00;99.00
41756;DHT22;27435;48.480;9.258;2023-09-19T07:52:47;18.20;99.00
41756;DHT22;27435;48.480;9.258;2023-09-19T07:55:13;18.30;99.00
41756;DHT22;27435;48.480;9.258;2023-09-19T07:57:42;18.30;99.00
41756;DHT22;27435;48.480;9.258;2023-09-19T08:00:08;18.50;99.00
41756;DHT22;27435;48.480;9.258;2023-09-19T08:02:37;18.60;99.00
41756;DHT22;27435;48.480;9.258;2023-09-19T08:05:06;18.90;99.00
41756;DHT22;27435;48.480;9.258;2023-09-19T08:07:34;18.80;99.00
41756;DHT22;27435;48.480;9.258;2023-09-19T08:10:03;19.00;99.00
41756;DHT22;27435;48.480;9.258;2023-09-19T08:12:31;18.90;99.00
41756;DHT22;27435;48.480;9.258;2023-09-19T08:14:57;18.80;99.00
41756;DHT22;27435;48.480;9.258;2023-09-19T08:17:23;18.80;99.00
41756;DHT22;27435;48.480;9.258;2023-09-19T08:19:48;18.70;99.00
41756;DHT22;27435;48.480;9.258;2023-09-19T08:22:19;18.60;99.00
41756;DHT22;27435;48.480;9.258;2023-09-19T08:24:44;18.40;99.00
41756;DHT22;27435;48.480;9.258;2023-09-19T08:27:10;18.30;99.00
41756;DHT22;27435;48.480;9.258;2023-09-19T08:29:36;18.40;99.00
41756;DHT22;27435;48.480;9.258;2023-09-19T08:32:01;18.40;99.00
41756;DHT22;27435;48.480;9.258;2023-09-19T08:34:27;18.40;99.00
41756;DHT22;27435;48.480;9.258;2023-09-19T08:36:53;18.60;99.00
41756;DHT22;27435;48.480;9.258;2023-09-19T08:39:22;18.70;99.00
41756;DHT22;27435;48.480;9.258;2023-09-19T08:41:47;19.00;97.60
41756;DHT22;27435;48.480;9.258;2023-09-19T08:44:13;18.90;98.10
41756;DHT22;27435;48.480;9.258;2023-09-19T08:46:40;19.00;98.40
41756;DHT22;27435;48.480;9.258;2023-09-19T08:51:56;19.10;95.70
41756;DHT22;27435;48.480;9.258;2023-09-19T08:54:27;18.50;98.10
41756;DHT22;27435;48.480;9.258;2023-09-19T08:56:54;18.40;98.70
41756;DHT22;27435;48.480;9.258;2023-09-19T08:59:22;18.40;99.00
41756;DHT22;27435;48.480;9.258;2023-09-19T09:01:54;18.50;99.00
41756;DHT22;27435;48.480;9.258;2023-09-19T09:04:22;18.50;99.00
41756;DHT22;27435;48.480;9.258;2023-09-19T09:06:48;18.50;99.00
41756;DHT22;27435;48.480;9.258;2023-09-19T09:09:16;18.40;99.00
41756;DHT22;27435;48.480;9.258;2023-09-19T09:11:42;18.40;98.80
41756;DHT22;27435;48.480;9.258;2023-09-19T09:14:07;18.20;98.20
41756;DHT22;27435;48.480;9.258;2023-09-19T09:16:33;18.20;98.60
41756;DHT22;27435;48.480;9.258;2023-09-19T09:18:59;18.30;95.90
41756;DHT22;27435;48.480;9.258;2023-09-19T09:21:25;18.20;96.20
41756;DHT22;27435;48.480;9.258;2023-09-19T09:23:51;18.10;98.10
41756;DHT22;27435;48.480;9.258;2023-09-19T09:29:02;17.80;96.90
41756;DHT22;27435;48.480;9.258;2023-09-19T09:31:28;17.80;98.60
41756;DHT22;27435;48.480;9.258;2023-09-19T09:33:54;17.90;98.30
41756;DHT22;27435;48.480;9.258;2023-09-19T09:36:36;18.00;96.70
41756;DHT22;27435;48.480;9.258;2023-09-19T09:39:02;18.50;96.70
41756;DHT22;27435;48.480;9.258;2023-09-19T09:41:41;18.70;96.80
41756;DHT22;27435;48.480;9.258;2023-09-19T09:44:13;19.30;95.30
41756;DHT22;27435;48.480;9.258;2023-09-19T09:46:44;19.70;92.70
41756;DHT22;27435;48.480;9.258;2023-09-19T09:49:22;19.70;92.70
41756;DHT22;27435;48.480;9.258;2023-09-19T09:52:00;19.80;92.00
41756;DHT22;27435;48.480;9.258;2023-09-19T09:54:31;20.10;92.00
41756;DHT22;27435;48.480;9.258;2023-09-19T09:57:02;19.90;89.70
41756;DHT22;27435;48.480;9.258;2023-09-19T09:59:58;19.60;88.00
41756;DHT22;27435;48.480;9.258;2023-09-19T10:02:25;19.50;88.60
41756;DHT22;27435;48.480;9.258;2023-09-19T10:04:57;19.70;88.50
41756;DHT22;27435;48.480;9.258;2023-09-19T10:07:46;19.60;88.20
41756;DHT22;27435;48.480;9.258;2023-09-19T10:10:34;19.60;87.30
41756;DHT22;27435;48.480;9.258;2023-09-19T10:13:09;19.40;88.00
41756;DHT22;27435;48.480;9.258;2023-09-19T10:15:39;19.30;89.10
41756;DHT22;27435;48.480;9.258;2023-09-19T10:18:10;19.50;88.60
41756;DHT22;27435;48.480;9.258;2023-09-19T10:20:36;19.50;87.40
41756;DHT22;27435;48.480;9.258;2023-09-19T10:23:07;19.60;86.80
41756;DHT22;27435;48.480;9.258;2023-09-19T10:25:38;19.70;86.40
41756;DHT22;27435;48.480;9.258;2023-09-19T10:28:07;19.80;86.50
41756;DHT22;27435;48.480;9.258;2023-09-19T10:30:45;19.70;86.00
41756;DHT22;27435;48.480;9.258;2023-09-19T10:33:16;19.50;86.80
41756;DHT22;27435;48.480;9.258;2023-09-19T10:35:45;19.60;87.50
41756;DHT22;27435;48.480;9.258;2023-09-19T10:38:11;19.70;87.10
41756;DHT22;27435;48.480;9.258;2023-09-19T10:40:38;19.80;86.80
41756;DHT22;27435;48.480;9.258;2023-09-19T10:43:11;19.80;85.90
41756;DHT22;27435;48.480;9.258;2023-09-19T10:45:36;19.50;85.50
41756;DHT22;27435;48.480;9.258;2023-09-19T10:48:05;19.40;86.70
41756;DHT22;27435;48.480;9.258;2023-09-19T10:50:41;19.60;86.30
41756;DHT22;27435;48.480;9.258;2023-09-19T10:53:07;19.70;85.90
41756;DHT22;27435;48.480;9.258;2023-09-19T10:55:36;20.00;85.60
41756;DHT22;27435;48.480;9.258;2023-09-19T10:58:02;20.50;82.00
41756;DHT22;27435;48.480;9.258;2023-09-19T11:00:49;20.70;82.70
41756;DHT22;27435;48.480;9.258;2023-09-19T11:03:16;20.40;84.30
41756;DHT22;27435;48.480;9.258;2023-09-19T11:05:43;20.40;83.50
41756;DHT22;27435;48.480;9.258;2023-09-19T11:08:25;19.80;84.70
41756;DHT22;27435;48.480;9.258;2023-09-19T11:10:51;19.60;85.80
41756;DHT22;27435;48.480;9.258;2023-09-19T11:13:30;19.60;86.40
41756;DHT22;27435;48.480;9.258;2023-09-19T11:16:03;19.70;86.90
41756;DHT22;27435;48.480;9.258;2023-09-19T11:26:42;19.80;84.40
41756;DHT22;27435;48.480;9.258;2023-09-19T11:29:27;19.60;84.60
41756;DHT22;27435;48.480;9.258;2023-09-19T11:31:57;19.40;84.50
41756;DHT22;27435;48.480;9.258;2023-09-19T11:34:46;19.40;85.30
41756;DHT22;27435;48.480;9.258;2023-09-19T11:39:40;19.80;83.60
41756;DHT22;27435;48.480;9.258;2023-09-19T11:44:52;19.90;83.70
41756;DHT22;27435;48.480;9.258;2023-09-19T11:47:21;20.00;83.40
41756;DHT22;27435;48.480;9.258;2023-09-19T11:49:47;20.10;82.90
41756;DHT22;27435;48.480;9.258;2023-09-19T11:52:16;20.10;82.40
41756;DHT22;27435;48.480;9.258;2023-09-19T11:54:47;20.30;82.40
41756;DHT22;27435;48.480;9.258;2023-09-19T11:57:22;20.40;82.10
41756;DHT22;27435;48.480;9.258;2023-09-19T11:59:47;20.40;82.10
41756;DHT22;27435;48.480;9.258;2023-09-19T12:02:15;20.50;80.50
41756;DHT22;27435;48.480;9.258;2023-09-19T12:04:44;20.70;80.50
41756;DHT22;27435;48.480;9.258;2023-09-19T12:07:14;20.60;80.60
41756;DHT22;27435;48.480;9.258;2023-09-19T12:09:45;20.50;80.90
41756;DHT22;27435;48.480;9.258;2023-09-19T12:12:21;20.50;80.00
41756;DHT22;27435;48.480;9.258;2023-09-19T12:14:47;20.30;80.10
41756;DHT22;27435;48.480;9.258;2023-09-19T12:17:13;20.30;79.30
41756;DHT22;27435;48.480;9.258;2023-09-19T12:19:40;20.70;78.00
41756;DHT22;27435;48.480;9.258;2023-09-19T12:22:14;20.90;78.10
41756;DHT22;27435;48.480;9.258;2023-09-19T12:24:40;20.90;78.30
41756;DHT22;27435;48.480;9.258;2023-09-19T12:27:09;21.00;78.30
41756;DHT22;27435;48.480;9.258;2023-09-19T12:29:47;20.90;77.70
41756;DHT22;27435;48.480;9.258;2023-09-19T12:32:19;21.00;77.80
41756;DHT22;27435;48.480;9.258;2023-09-19T12:34:59;21.30;76.70
41756;DHT22;27435;48.480;9.258;2023-09-19T12:37:25;21.60;76.80
41756;DHT22;27435;48.480;9.258;2023-09-19T12:40:03;21.80;76.90
41756;DHT22;27435;48.480;9.258;2023-09-19T12:42:40;22.00;75.00
41756;DHT22;27435;48.480;9.258;2023-09-19T12:45:06;21.90;75.20
41756;DHT22;27435;48.480;9.258;2023-09-19T12:47:34;21.80;75.50
41756;DHT22;27435;48.480;9.258;2023-09-19T12:50:10;21.90;75.20
41756;DHT22;27435;48.480;9.258;2023-09-19T12:52:39;22.00;75.70
41756;DHT22;27435;48.480;9.258;2023-09-19T12:55:05;22.20;74.00
41756;DHT22;27435;48.480;9.258;2023-09-19T12:57:36;22.50;73.10
41756;DHT22;27435;48.480;9.258;2023-09-19T13:00:02;22.30;73.90
41756;DHT22;27435;48.480;9.258;2023-09-19T13:02:31;22.00;74.20
41756;DHT22;27435;48.480;9.258;2023-09-19T13:04:56;21.90;73.80
41756;DHT22;27435;48.480;9.258;2023-09-19T13:07:43;22.10;73.60
41756;DHT22;27435;48.480;9.258;2023-09-19T13:10:09;22.00;68.90
41756;DHT22;27435;48.480;9.258;2023-09-19T13:12:36;22.00;69.70
41756;DHT22;27435;48.480;9.258;2023-09-19T13:15:12;22.10;69.80
41756;DHT22;27435;48.480;9.258;2023-09-19T13:17:49;22.10;68.50
41756;DHT22;27435;48.480;9.258;2023-09-19T13:20:23;22.30;68.10
41756;DHT22;27435;48.480;9.258;2023-09-19T13:22:53;22.50;67.50
41756;DHT22;27435;48.480;9.258;2023-09-19T13:25:31;22.60;68.10
41756;DHT22;27435;48.480;9.258;2023-09-19T13:27:58;23.10;67.10
41756;DHT22;27435;48.480;9.258;2023-09-19T13:30:25;23.30;65.70
41756;DHT22;27435;48.480;9.258;2023-09-19T13:32:52;23.30;65.70
41756;DHT22;27435;48.480;9.258;2023-09-19T13:35:18;23.00;65.80
41756;DHT22;27435;48.480;9.258;2023-09-19T13:37:43;23.10;65.60
41756;DHT22;27435;48.480;9.258;2023-09-19T13:40:12;22.90;66.50
41756;DHT22;27435;48.480;9.258;2023-09-19T13:42:38;22.80;66.50
41756;DHT22;27435;48.480;9.258;2023-09-19T13:45:04;22.80;67.30
41756;DHT22;27435;48.480;9.258;2023-09-19T13:47:30;22.70;67.40
41756;DHT22;27435;48.480;9.258;2023-09-19T13:49:55;22.40;68.70
41756;DHT22;27435;48.480;9.258;2023-09-19T13:52:21;22.40;67.90
41756;DHT22;27435;48.480;9.258;2023-09-19T13:54:51;22.70;67.80
41756;DHT22;27435;48.480;9.258;2023-09-19T13:57:18;23.50;67.20
41756;DHT22;27435;48.480;9.258;2023-09-19T13:59:44;23.80;65.10
41756;DHT22;27435;48.480;9.258;2023-09-19T14:02:09;23.70;65.70
41756;DHT22;27435;48.480;9.258;2023-09-19T14:04:35;23.60;66.30
41756;DHT22;27435;48.480;9.258;2023-09-19T14:07:01;23.90;65.70
41756;DHT22;27435;48.480;9.258;2023-09-19T14:09:26;23.70;64.90
41756;DHT22;27435;48.480;9.258;2023-09-19T14:11:52;23.70;66.00
41756;DHT22;27435;48.480;9.258;2023-09-19T14:14:20;23.60;66.30
41756;DHT22;27435;48.480;9.258;2023-09-19T14:16:49;23.70;67.20
41756;DHT22;27435;48.480;9.258;2023-09-19T14:19:15;23.80;67.10
41756;DHT22;27435;48.480;9.258;2023-09-19T14:21:42;24.20;66.30
41756;DHT22;27435;48.480;9.258;2023-09-19T14:24:07;24.30;66.20
41756;DHT22;27435;48.480;9.258;2023-09-19T14:26:39;24.00;67.10
41756;DHT22;27435;48.480;9.258;2023-09-19T14:29:04;23.80;68.60
41756;DHT22;27435;48.480;9.258;2023-09-19T14:31:33;24.00;69.30
41756;DHT22;27435;48.480;9.258;2023-09-19T14:33:58;24.50;67.60
41756;DHT22;27435;48.480;9.258;2023-09-19T14:36:25;24.90;66.30
41756;DHT22;27435;48.480;9.258;2023-09-19T14:38:53;25.00;65.70
41756;DHT22;27435;48.480;9.258;2023-09-19T14:41:20;25.10;65.80
41756;DHT22;27435;48.480;9.258;2023-09-19T14:43:45;24.50;65.90
41756;DHT22;27435;48.480;9.258;2023-09-19T14:46:11;24.40;65.70
41756;DHT22;27435;48.480;9.258;2023-09-19T14:48:36;24.20;66.10
41756;DHT22;27435;48.480;9.258;2023-09-19T14:51:08;24.40;65.70
41756;DHT22;27435;48.480;9.258;2023-09-19T14:53:35;24.60;65.40
41756;DHT22;27435;48.480;9.258;2023-09-19T14:56:01;24.50;65.40
41756;DHT22;27435;48.480;9.258;2023-09-19T14:58:32;24.30;66.20
41756;DHT22;27435;48.480;9.258;2023-09-19T15:01:05;24.30;65.40
41756;DHT22;27435;48.480;9.258;2023-09-19T15:03:33;23.90;66.20
41756;DHT22;27435;48.480;9.258;2023-09-19T15:06:00;24.40;66.30
41756;DHT22;27435;48.480;9.258;2023-09-19T15:08:25;24.00;65.60
41756;DHT22;27435;48.480;9.258;2023-09-19T15:10:51;23.70;66.50
41756;DHT22;27435;48.480;9.258;2023-09-19T15:13:19;23.90;66.00
41756;DHT22;27435;48.480;9.258;2023-09-19T15:15:45;23.80;65.60
41756;DHT22;27435;48.480;9.258;2023-09-19T15:18:13;24.40;65.70
41756;DHT22;27435;48.480;9.258;2023-09-19T15:20:45;24.80;63.60
41756;DHT22;27435;48.480;9.258;2023-09-19T15:23:11;24.60;63.60
41756;DHT22;27435;48.480;9.258;2023-09-19T15:25:38;24.40;63.80
41756;DHT22;27435;48.480;9.258;2023-09-19T15:28:05;24.30;64.10
41756;DHT22;27435;48.480;9.258;2023-09-19T15:30:37;24.40;63.60
41756;DHT22;27435;48.480;9.258;2023-09-19T15:33:02;24.40;63.80
41756;DHT22;27435;48.480;9.258;2023-09-19T15:35:28;24.30;63.90
41756;DHT22;27435;48.480;9.258;2023-09-19T15:37:53;24.50;63.30
41756;DHT22;27435;48.480;9.258;2023-09-19T15:40:21;24.40;63.40
41756;DHT22;27435;48.480;9.258;2023-09-19T15:42:49;24.70;63.00
41756;DHT22;27435;48.480;9.258;2023-09-19T15:45:14;24.80;62.80
41756;DHT22;27435;48.480;9.258;2023-09-19T15:47:41;25.00;62.30
41756;DHT22;27435;48.480;9.258;2023-09-19T15:50:07;24.30;63.60
41756;DHT22;27435;48.480;9.258;2023-09-19T15:52:35;24.40;63.60
41756;DHT22;27435;48.480;9.258;2023-09-19T15:55:04;24.10;63.70
41756;DHT22;27435;48.480;9.258;2023-09-19T15:57:29;24.40;64.10
41756;DHT22;27435;48.480;9.258;2023-09-19T15:59:56;24.50;63.10
41756;DHT22;27435;48.480;9.258;2023-09-19T16:02:22;24.70;62.40
41756;DHT22;27435;48.480;9.258;2023-09-19T16:04:48;25.10;61.70
41756;DHT22;27435;48.480;9.258;2023-09-19T16:07:13;25.30;61.20
41756;DHT22;27435;48.480;9.258;2023-09-19T16:09:40;25.30;60.70
41756;DHT22;27435;48.480;9.258;2023-09-19T16:12:07;25.20;61.40
41756;DHT22;27435;48.480;9.258;2023-09-19T16:14:34;25.40;60.30
41756;DHT22;27435;48.480;9.258;2023-09-19T16:17:00;25.30;60.70
41756;DHT22;27435;48.480;9.258;2023-09-19T16:19:27;25.50;60.10
41756;DHT22;27435;48.480;9.258;2023-09-19T16:21:53;25.70;60.10
41756;DHT22;27435;48.480;9.258;2023-09-19T16:24:18;25.70;59.50
41756;DHT22;27435;48.480;9.258;2023-09-19T16:26:44;25.80;59.70
41756;DHT22;27435;48.480;9.258;2023-09-19T16:29:10;25.80;58.90
41756;DHT22;27435;48.480;9.258;2023-09-19T16:31:36;25.60;60.20